createdAt,value
2024-05-09T00:00:47.466Z,14.41
2024-05-09T00:03:14.933Z,14.55
2024-05-09T00:05:42.802Z,14.44
2024-05-09T00:08:10.043Z,14.08
2024-05-09T00:10:38.871Z,13.78
2024-05-09T00:13:07.246Z,14.20
2024-05-09T00:15:35.749Z,14.35
2024-05-09T00:18:04.129Z,13.99
2024-05-09T00:23:00.781Z,13.95
2024-05-09T00:25:27.451Z,13.76
2024-05-09T00:27:54.542Z,13.89
2024-05-09T00:30:31.052Z,14.30
2024-05-09T00:33:01.766Z,14.24
2024-05-09T00:35:31.967Z,14.57
2024-05-09T00:37:58.816Z,14.42
2024-05-09T00:40:35.291Z,14.66
2024-05-09T00:43:05.897Z,14.51
2024-05-09T00:45:33.233Z,14.38
2024-05-09T00:48:01.236Z,14.26
2024-05-09T00:50:35.684Z,14.30
2024-05-09T00:53:06.838Z,13.96
2024-05-09T00:55:34.852Z,13.49
2024-05-09T00:58:03.055Z,13.58
2024-05-09T01:00:37.806Z,13.24
2024-05-09T01:03:08.266Z,12.78
2024-05-09T01:05:36.049Z,12.82
2024-05-09T01:08:03.445Z,13.20
2024-05-09T01:10:34.803Z,13.06
2024-05-09T01:13:04.962Z,12.66
2024-05-09T01:15:32.071Z,12.54
2024-05-09T01:17:58.986Z,12.30
2024-05-09T01:20:36.809Z,12.00
2024-05-09T01:23:08.530Z,11.93
2024-05-09T01:25:38.582Z,12.22
2024-05-09T01:28:06.240Z,12.06
2024-05-09T01:30:35.953Z,12.08
2024-05-09T01:33:05.222Z,12.12
2024-05-09T01:35:32.991Z,11.89
2024-05-09T01:38:00.480Z,11.98
2024-05-09T01:40:36.383Z,11.93
2024-05-09T01:43:06.391Z,12.14
2024-05-09T01:45:33.551Z,11.90
2024-05-09T01:48:03.807Z,11.73
2024-05-09T01:50:38.278Z,12.00
2024-05-09T01:53:08.228Z,12.22
2024-05-09T01:55:35.837Z,12.13
2024-05-09T01:58:02.505Z,12.37
2024-05-09T02:00:38.769Z,12.05
2024-05-09T02:03:14.612Z,12.57
2024-05-09T02:05:44.574Z,12.57
2024-05-09T02:08:14.493Z,12.47
2024-05-09T02:10:42.020Z,12.14
2024-05-09T02:13:12.163Z,12.07
2024-05-09T02:15:39.314Z,12.14
2024-05-09T02:18:07.159Z,11.72
2024-05-09T02:20:36.733Z,12.37
2024-05-09T02:23:05.192Z,11.96
2024-05-09T02:25:32.969Z,12.55
2024-05-09T02:28:02.816Z,12.63
2024-05-09T02:30:38.357Z,12.56
2024-05-09T02:33:13.819Z,12.92
2024-05-09T02:35:42.230Z,13.28
2024-05-09T02:38:09.966Z,13.17
2024-05-09T02:40:39.635Z,13.27
2024-05-09T02:43:08.044Z,13.39
2024-05-09T02:45:35.641Z,13.46
2024-05-09T02:48:03.169Z,13.05
2024-05-09T02:50:37.363Z,12.71
2024-05-09T02:53:07.174Z,12.11
2024-05-09T02:55:37.416Z,12.01
2024-05-09T02:58:05.131Z,12.03
2024-05-09T03:00:39.100Z,12.09
2024-05-09T03:03:10.958Z,11.90
2024-05-09T03:05:42.112Z,12.17
2024-05-09T03:08:10.006Z,12.19
2024-05-09T03:10:40.500Z,12.50
2024-05-09T03:13:07.771Z,12.52
2024-05-09T03:15:36.771Z,12.16
2024-05-09T03:18:04.960Z,12.03
2024-05-09T03:20:35.349Z,12.47
2024-05-09T03:23:05.830Z,12.33
2024-05-09T03:25:34.288Z,12.22
2024-05-09T03:28:02.272Z,12.33
2024-05-09T03:30:39.705Z,12.87
2024-05-09T03:33:09.839Z,13.00
2024-05-09T03:35:37.792Z,13.37
2024-05-09T03:38:05.042Z,13.64
2024-05-09T03:40:32.700Z,13.65
2024-05-09T03:42:59.873Z,13.75
2024-05-09T03:45:30.079Z,13.91
2024-05-09T03:47:59.735Z,13.93
2024-05-09T03:50:33.667Z,13.53
2024-05-09T03:53:05.390Z,13.61
2024-05-09T03:55:33.019Z,12.43
2024-05-09T03:58:01.416Z,12.97
2024-05-09T04:00:35.768Z,12.23
2024-05-09T04:03:07.578Z,12.29
2024-05-09T04:05:37.269Z,12.41
2024-05-09T04:08:04.339Z,12.62
2024-05-09T04:10:34.686Z,12.47
2024-05-09T04:13:02.780Z,13.07
2024-05-09T04:15:29.834Z,13.36
2024-05-09T04:17:57.785Z,13.35
2024-05-09T04:20:34.357Z,13.47
2024-05-09T04:23:09.318Z,13.45
2024-05-09T04:25:36.781Z,13.41
2024-05-09T04:28:03.773Z,13.40
2024-05-09T04:30:37.458Z,13.07
2024-05-09T04:33:09.107Z,13.45
2024-05-09T04:35:40.185Z,13.40
2024-05-09T04:38:07.667Z,13.24
2024-05-09T04:40:36.620Z,13.08
2024-05-09T04:43:04.891Z,13.27
2024-05-09T04:45:32.147Z,12.82
2024-05-09T04:47:59.772Z,13.14
2024-05-09T04:50:35.573Z,13.24
2024-05-09T04:53:06.129Z,13.50
2024-05-09T04:55:35.267Z,13.12
2024-05-09T04:58:02.249Z,12.35
2024-05-09T05:00:35.955Z,12.42
2024-05-09T05:03:06.068Z,12.69
2024-05-09T05:05:36.345Z,12.77
2024-05-09T05:08:03.462Z,12.45
2024-05-09T05:10:35.915Z,12.52
2024-05-09T05:13:04.634Z,12.70
2024-05-09T05:15:32.752Z,12.23
2024-05-09T05:18:01.062Z,12.24
2024-05-09T05:20:33.539Z,11.89
2024-05-09T05:23:01.483Z,11.70
2024-05-09T05:25:30.115Z,11.76
2024-05-09T05:27:58.195Z,11.43
2024-05-09T05:30:32.791Z,11.78
2024-05-09T05:33:02.367Z,12.21
2024-05-09T05:35:30.172Z,12.03
2024-05-09T05:38:05.683Z,11.84
2024-05-09T05:40:36.589Z,11.83
2024-05-09T05:43:08.758Z,11.61
2024-05-09T05:45:36.299Z,12.06
2024-05-09T05:48:04.631Z,12.28
2024-05-09T05:50:36.273Z,12.11
2024-05-09T05:53:05.583Z,11.91
2024-05-09T05:55:33.069Z,12.27
2024-05-09T05:58:01.023Z,12.32
2024-05-09T06:00:38.207Z,11.99
2024-05-09T06:03:09.058Z,12.00
2024-05-09T06:05:37.679Z,12.50
2024-05-09T06:08:07.315Z,12.35
2024-05-09T06:10:39.370Z,12.39
2024-05-09T06:13:08.344Z,12.39
2024-05-09T06:15:35.497Z,12.26
2024-05-09T06:18:02.811Z,12.59
2024-05-09T06:20:36.251Z,12.99
2024-05-09T06:23:06.496Z,12.73
2024-05-09T06:25:34.417Z,12.71
2024-05-09T06:28:02.326Z,12.88
2024-05-09T06:30:37.341Z,12.60
2024-05-09T06:33:09.394Z,12.57
2024-05-09T06:35:37.792Z,13.03
2024-05-09T06:38:05.143Z,12.89
2024-05-09T06:40:37.875Z,13.40
2024-05-09T06:43:07.231Z,13.39
2024-05-09T06:45:34.391Z,13.23
2024-05-09T06:48:01.204Z,13.13
2024-05-09T06:50:36.815Z,13.11
2024-05-09T06:53:15.027Z,13.21
2024-05-09T06:55:41.921Z,12.86
2024-05-09T06:58:09.534Z,12.99
2024-05-09T07:00:39.998Z,13.31
2024-05-09T07:03:08.527Z,13.02
2024-05-09T07:05:35.514Z,12.68
2024-05-09T07:08:03.509Z,12.56
2024-05-09T07:10:34.835Z,12.66
2024-05-09T07:13:02.744Z,12.94
2024-05-09T07:15:30.174Z,13.07
2024-05-09T07:17:57.928Z,12.87
2024-05-09T07:20:33.918Z,12.99
2024-05-09T07:23:02.192Z,12.92
2024-05-09T07:25:30.945Z,13.05
2024-05-09T07:27:58.068Z,12.97
2024-05-09T07:30:32.645Z,13.25
2024-05-09T07:33:03.606Z,13.49
2024-05-09T07:35:31.624Z,13.24
2024-05-09T07:38:06.990Z,13.30
2024-05-09T07:40:36.641Z,13.52
2024-05-09T07:43:07.071Z,13.56
2024-05-09T07:53:37.067Z,13.46
2024-05-09T07:56:00.207Z,13.65
2024-05-09T07:58:28.140Z,13.63
2024-05-09T08:01:02.882Z,14.13
2024-05-09T08:03:32.789Z,13.97
2024-05-09T08:06:02.007Z,14.50
2024-05-09T08:11:13.007Z,14.76
2024-05-09T08:13:47.365Z,14.33
2024-05-09T08:16:21.902Z,13.84
2024-05-09T08:18:51.645Z,14.35
2024-05-09T08:21:19.197Z,14.29
2024-05-09T08:23:53.571Z,14.39
2024-05-09T08:26:27.856Z,14.27
2024-05-09T08:28:58.856Z,14.23
2024-05-09T08:31:26.727Z,14.61
2024-05-09T08:33:55.407Z,14.28
2024-05-09T08:36:24.259Z,14.41
2024-05-09T08:38:52.944Z,14.71
2024-05-09T08:41:21.226Z,15.35
2024-05-09T08:43:50.077Z,15.30
2024-05-09T08:46:19.712Z,15.23
2024-05-09T08:48:51.199Z,15.60
2024-05-09T08:51:20.868Z,15.70
2024-05-09T08:53:48.038Z,15.21
2024-05-09T08:56:15.544Z,15.34
2024-05-09T08:58:42.876Z,15.44
2024-05-09T09:01:10.394Z,16.09
2024-05-09T09:03:38.137Z,16.28
2024-05-09T09:06:06.118Z,16.29
2024-05-09T09:08:33.599Z,16.32
2024-05-09T09:11:00.999Z,16.37
2024-05-09T09:13:28.447Z,16.93
2024-05-09T09:15:57.798Z,15.92
2024-05-09T09:18:26.238Z,16.43
2024-05-09T09:20:53.428Z,16.47
2024-05-09T09:23:20.539Z,16.59
2024-05-09T09:25:48.017Z,16.37
2024-05-09T09:28:16.155Z,15.74
2024-05-09T09:30:43.616Z,16.04
2024-05-09T09:33:12.011Z,16.59
2024-05-09T09:35:43.238Z,16.61
2024-05-09T09:38:11.339Z,17.09
2024-05-09T09:40:42.899Z,17.33
2024-05-09T09:43:14.279Z,17.21
2024-05-09T09:45:43.919Z,16.60
2024-05-09T09:48:11.797Z,16.91
2024-05-09T09:50:39.224Z,17.52
2024-05-09T09:53:07.851Z,17.29
2024-05-09T09:55:34.944Z,17.01
2024-05-09T09:58:14.261Z,17.48
2024-05-09T10:01:20.879Z,17.70
2024-05-09T10:03:48.135Z,17.88
2024-05-09T10:06:15.620Z,18.05
2024-05-09T10:08:42.974Z,18.00
2024-05-09T10:11:10.146Z,18.12
2024-05-09T10:13:38.232Z,17.35
2024-05-09T10:16:08.658Z,17.39
2024-05-09T10:18:38.731Z,17.42
2024-05-09T10:21:06.786Z,17.23
2024-05-09T10:23:33.925Z,16.96
2024-05-09T10:26:04.071Z,17.58
2024-05-09T10:28:31.391Z,17.24
2024-05-09T10:30:59.541Z,16.87
2024-05-09T10:33:26.703Z,17.15
2024-05-09T10:35:54.094Z,17.72
2024-05-09T10:38:23.594Z,18.19
2024-05-09T10:40:51.802Z,17.99
2024-05-09T10:43:18.992Z,17.88
2024-05-09T10:45:46.554Z,18.09
2024-05-09T10:48:15.982Z,18.36
2024-05-09T10:50:43.662Z,17.62
2024-05-09T10:53:11.083Z,17.91
2024-05-09T10:55:39.412Z,18.36
2024-05-09T10:58:06.515Z,17.88
2024-05-09T11:00:36.366Z,17.56
2024-05-09T11:03:07.214Z,18.01
2024-05-09T11:05:35.358Z,17.81
2024-05-09T11:08:04.936Z,17.54
2024-05-09T11:10:34.409Z,17.24
2024-05-09T11:13:09.644Z,17.60
2024-05-09T11:15:38.057Z,17.75
2024-05-09T11:18:05.947Z,17.73
2024-05-09T11:20:35.473Z,17.77
2024-05-09T11:23:02.892Z,18.37
2024-05-09T11:25:30.002Z,18.50
2024-05-09T11:27:57.148Z,18.29
2024-05-09T11:30:30.054Z,18.28
2024-05-09T11:32:59.988Z,17.75
2024-05-09T11:35:27.163Z,18.37
2024-05-09T11:37:54.645Z,18.52
2024-05-09T11:40:25.842Z,18.02
2024-05-09T11:42:59.608Z,18.55
2024-05-09T11:45:27.392Z,17.73
2024-05-09T11:47:54.663Z,17.69
2024-05-09T11:50:27.387Z,18.20
2024-05-09T11:53:00.575Z,18.19
2024-05-09T11:55:30.999Z,18.00
2024-05-09T11:57:59.995Z,18.57
2024-05-09T12:00:34.172Z,18.65
2024-05-09T12:03:04.777Z,18.07
2024-05-09T12:05:33.787Z,18.58
2024-05-09T12:08:01.536Z,18.42
2024-05-09T12:10:33.462Z,18.29
2024-05-09T12:13:05.484Z,17.22
2024-05-09T12:15:39.414Z,17.03
2024-05-09T12:18:07.334Z,16.81
2024-05-09T12:20:38.252Z,17.52
2024-05-09T12:23:07.407Z,18.01
2024-05-09T12:25:34.959Z,18.31
2024-05-09T12:28:02.608Z,17.97
2024-05-09T12:30:36.588Z,18.01
2024-05-09T12:33:06.847Z,17.90
2024-05-09T12:35:33.622Z,17.72
2024-05-09T12:38:01.291Z,17.53
2024-05-09T12:40:35.523Z,17.97
2024-05-09T12:43:05.255Z,18.34
2024-05-09T12:45:32.362Z,18.42
2024-05-09T12:47:59.670Z,18.50
2024-05-09T12:50:32.533Z,18.41
2024-05-09T12:53:01.323Z,18.47
2024-05-09T12:55:29.850Z,18.76
2024-05-09T12:57:58.617Z,18.36
2024-05-09T13:00:31.482Z,18.23
2024-05-09T13:03:01.316Z,18.03
2024-05-09T13:05:28.664Z,18.29
2024-05-09T13:07:55.987Z,17.97
2024-05-09T13:10:28.917Z,18.34
2024-05-09T13:12:59.561Z,18.37
2024-05-09T13:15:26.676Z,18.63
2024-05-09T13:17:53.459Z,18.35
2024-05-09T13:20:29.157Z,18.88
2024-05-09T13:23:00.010Z,18.70
2024-05-09T13:25:26.981Z,18.55
2024-05-09T13:27:53.705Z,18.37
2024-05-09T13:30:38.241Z,18.95
2024-05-09T13:33:08.834Z,18.85
2024-05-09T13:35:36.438Z,18.72
2024-05-09T13:38:13.451Z,18.52
2024-05-09T13:40:40.700Z,18.71
2024-05-09T13:43:08.996Z,19.25
2024-05-09T13:45:36.229Z,19.29
2024-05-09T13:48:04.633Z,19.24
2024-05-09T13:50:35.698Z,19.18
2024-05-09T13:53:06.117Z,19.41
2024-05-09T13:55:34.696Z,19.06
2024-05-09T13:58:01.918Z,19.21
2024-05-09T14:00:41.969Z,18.92
2024-05-09T14:03:14.435Z,18.97
2024-05-09T14:05:41.933Z,18.39
2024-05-09T14:08:09.133Z,18.31
2024-05-09T14:10:36.215Z,18.46
2024-05-09T14:13:06.804Z,18.76
2024-05-09T14:15:36.024Z,18.78
2024-05-09T14:18:02.780Z,18.62
2024-05-09T14:20:31.776Z,19.01
2024-05-09T14:22:59.681Z,19.10
2024-05-09T14:25:26.988Z,18.84
2024-05-09T14:27:54.985Z,18.76
2024-05-09T14:30:30.517Z,18.90
2024-05-09T14:33:03.651Z,18.45
2024-05-09T14:35:30.607Z,18.40
2024-05-09T14:37:57.402Z,18.57
2024-05-09T14:42:54.304Z,18.94
2024-05-09T14:45:20.985Z,18.92
2024-05-09T14:47:47.652Z,19.17
2024-05-09T14:50:23.700Z,19.23
2024-05-09T14:52:58.306Z,19.34
2024-05-09T14:55:27.179Z,19.75
2024-05-09T14:57:53.901Z,19.45
2024-05-09T15:00:28.617Z,19.31
2024-05-09T15:03:02.870Z,19.35
2024-05-09T15:05:35.806Z,19.33
2024-05-09T15:08:05.664Z,19.37
2024-05-09T15:10:36.032Z,19.64
2024-05-09T15:13:19.456Z,19.45
2024-05-09T15:15:48.194Z,19.43
2024-05-09T15:18:20.565Z,19.52
2024-05-09T15:20:55.613Z,20.11
2024-05-09T15:23:23.063Z,20.07
2024-05-09T15:25:50.531Z,19.43
2024-05-09T15:28:21.631Z,19.33
2024-05-09T15:30:50.300Z,18.71
2024-05-09T15:33:18.014Z,18.76
2024-05-09T15:35:47.538Z,18.92
2024-05-09T15:38:14.897Z,19.06
2024-05-09T15:40:41.979Z,18.79
2024-05-09T15:43:11.368Z,19.41
2024-05-09T15:45:39.419Z,19.22
2024-05-09T15:48:06.834Z,19.17
2024-05-09T15:50:38.908Z,19.39
2024-05-09T15:53:09.378Z,19.56
2024-05-09T15:55:37.183Z,19.53
2024-05-09T15:58:07.956Z,19.66
2024-05-09T16:00:39.333Z,19.95
2024-05-09T16:03:10.101Z,19.24
2024-05-09T16:05:37.757Z,19.10
2024-05-09T16:08:06.265Z,19.10
2024-05-09T16:10:34.894Z,18.82
2024-05-09T16:13:04.317Z,18.59
2024-05-09T16:15:31.945Z,18.48
2024-05-09T16:17:59.407Z,18.82
2024-05-09T16:20:34.963Z,18.44
2024-05-09T16:23:08.526Z,18.81
2024-05-09T16:25:35.907Z,18.85
2024-05-09T16:28:02.995Z,19.07
2024-05-09T16:30:34.951Z,19.08
2024-05-09T16:33:03.747Z,19.10
2024-05-09T16:35:31.499Z,18.76
2024-05-09T16:37:58.655Z,18.58
2024-05-09T16:40:34.432Z,18.77
2024-05-09T16:45:56.539Z,18.83
2024-05-09T16:48:23.669Z,18.53
2024-05-09T16:50:50.371Z,18.67
2024-05-09T16:53:17.853Z,18.38
2024-05-09T16:55:45.689Z,18.75
2024-05-09T16:58:12.563Z,18.76
2024-05-09T17:00:42.713Z,18.91
2024-05-09T17:03:11.614Z,18.71
2024-05-09T17:05:39.337Z,18.73
2024-05-09T17:08:06.512Z,18.86
2024-05-09T17:10:35.059Z,19.00
2024-05-09T17:13:02.750Z,18.48
2024-05-09T17:15:31.975Z,18.33
2024-05-09T17:17:59.161Z,18.21
2024-05-09T17:20:32.504Z,18.23
2024-05-09T17:23:09.614Z,18.42
2024-05-09T17:25:37.922Z,18.71
2024-05-09T17:28:05.869Z,18.50
2024-05-09T17:30:36.757Z,18.61
2024-05-09T17:33:07.751Z,19.04
2024-05-09T17:35:35.608Z,18.70
2024-05-09T17:38:02.710Z,19.18
2024-05-09T17:40:34.940Z,18.87
2024-05-09T17:43:05.110Z,18.90
2024-05-09T17:45:33.399Z,18.52
2024-05-09T17:48:03.823Z,18.57
2024-05-09T17:50:35.340Z,18.27
2024-05-09T17:53:04.399Z,18.52
2024-05-09T17:55:31.653Z,18.47
2024-05-09T17:57:59.093Z,18.72
